createdAt,value
2022-12-15T00:01:47.484Z,-7.36
2022-12-15T00:05:07.997Z,-7.37
2022-12-15T00:08:29.414Z,-7.38
2022-12-15T00:11:49.308Z,-7.38
2022-12-15T00:15:09.692Z,-7.39
2022-12-15T00:18:30.083Z,-7.41
2022-12-15T00:21:50.608Z,-7.41
2022-12-15T00:25:10.595Z,-7.45
2022-12-15T00:28:30.421Z,-7.45
2022-12-15T00:31:50.385Z,-7.44
2022-12-15T00:35:10.523Z,-7.46
2022-12-15T00:38:32.427Z,-7.44
2022-12-15T00:41:34.107Z,-7.44
2022-12-15T00:44:37.295Z,-7.43
2022-12-15T00:47:38.812Z,-7.43
2022-12-15T00:50:53.990Z,-7.41
2022-12-15T00:54:18.058Z,-7.41
2022-12-15T00:57:38.059Z,-7.41
2022-12-15T01:00:58.544Z,-7.40
2022-12-15T01:04:18.614Z,-7.40
2022-12-15T01:07:38.802Z,-7.36
2022-12-15T01:10:58.779Z,-7.33
2022-12-15T01:14:18.649Z,-7.32
2022-12-15T01:17:39.428Z,-7.30
2022-12-15T01:20:41.043Z,-7.27
2022-12-15T01:23:42.627Z,-7.25
2022-12-15T01:26:44.149Z,-7.23
2022-12-15T01:29:45.743Z,-7.22
2022-12-15T01:32:47.294Z,-7.20
2022-12-15T01:35:59.467Z,-7.21
2022-12-15T01:39:01.631Z,-7.22
2022-12-15T01:42:03.232Z,-7.21
2022-12-15T01:45:23.712Z,-7.20
2022-12-15T01:48:28.915Z,-7.19
2022-12-15T01:51:42.630Z,-7.18
2022-12-15T01:54:54.012Z,-7.18
2022-12-15T01:58:00.518Z,-7.17
2022-12-15T02:01:03.283Z,-7.17
2022-12-15T02:04:05.095Z,-7.17
2022-12-15T02:07:06.688Z,-7.15
2022-12-15T02:10:11.226Z,-7.13
2022-12-15T02:13:24.849Z,-7.11
2022-12-15T02:16:45.302Z,-7.08
2022-12-15T02:20:09.686Z,-7.09
2022-12-15T02:23:48.384Z,-7.10
2022-12-15T02:27:15.765Z,-7.09
2022-12-15T02:30:31.624Z,-7.09
2022-12-15T02:33:35.743Z,-7.07
2022-12-15T02:36:40.596Z,-7.07
2022-12-15T02:39:42.389Z,-7.06
2022-12-15T02:42:47.793Z,-7.06
2022-12-15T02:46:08.927Z,-7.05
2022-12-15T02:49:30.941Z,-7.06
2022-12-15T02:52:56.200Z,-7.07
2022-12-15T02:56:30.126Z,-7.07
2022-12-15T02:59:55.593Z,-7.07
2022-12-15T03:02:57.316Z,-7.09
2022-12-15T03:06:02.366Z,-7.07
2022-12-15T03:09:04.022Z,-7.06
2022-12-15T03:12:06.109Z,-7.05
2022-12-15T03:15:07.882Z,-7.03
2022-12-15T03:18:09.617Z,-7.01
2022-12-15T03:21:11.218Z,-7.01
2022-12-15T03:24:12.855Z,-7.00
2022-12-15T03:27:14.611Z,-7.02
2022-12-15T03:30:16.241Z,-7.01
2022-12-15T03:33:18.407Z,-7.01
2022-12-15T03:36:19.898Z,-6.99
2022-12-15T03:39:21.468Z,-6.98
2022-12-15T03:42:41.595Z,-6.97
2022-12-15T03:45:43.472Z,-6.96
2022-12-15T03:48:45.062Z,-6.96
2022-12-15T03:51:46.640Z,-6.94
2022-12-15T03:54:48.183Z,-6.94
2022-12-15T03:57:50.449Z,-6.93
2022-12-15T04:00:52.019Z,-6.93
2022-12-15T04:03:58.653Z,-6.94
2022-12-15T04:07:02.247Z,-6.93
2022-12-15T04:10:04.159Z,-6.91
2022-12-15T04:13:08.391Z,-6.93
2022-12-15T04:16:12.628Z,-6.92
2022-12-15T04:19:35.307Z,-6.90
2022-12-15T04:22:44.775Z,-6.87
2022-12-15T04:26:05.341Z,-6.86
2022-12-15T04:29:25.447Z,-6.84
2022-12-15T04:32:45.244Z,-6.84
2022-12-15T04:36:11.430Z,-6.84
2022-12-15T04:39:31.505Z,-6.85
2022-12-15T04:42:53.539Z,-6.84
2022-12-15T04:46:13.544Z,-6.82
2022-12-15T04:49:33.862Z,-6.82
2022-12-15T04:52:54.043Z,-6.82
2022-12-15T04:56:18.461Z,-6.82
2022-12-15T04:59:39.013Z,-6.82
2022-12-15T05:02:58.899Z,-6.80
2022-12-15T05:06:18.762Z,-6.79
2022-12-15T05:09:39.281Z,-6.81
2022-12-15T05:12:59.217Z,-6.83
2022-12-15T05:16:19.388Z,-6.83
2022-12-15T05:19:39.624Z,-6.82
2022-12-15T05:22:59.467Z,-6.81
2022-12-15T05:26:19.495Z,-6.83
2022-12-15T05:29:40.374Z,-6.84
2022-12-15T05:32:41.883Z,-6.84
2022-12-15T05:35:43.467Z,-6.84
2022-12-15T05:38:48.255Z,-6.83
2022-12-15T05:41:52.588Z,-6.82
2022-12-15T05:44:54.634Z,-6.82
2022-12-15T05:47:56.323Z,-6.57
2022-12-15T05:50:57.868Z,-6.47
2022-12-15T05:53:59.521Z,-6.45
2022-12-15T05:57:01.070Z,-6.47
2022-12-15T06:00:04.077Z,-6.49
2022-12-15T06:03:05.701Z,-6.11
2022-12-15T06:06:09.040Z,-5.79
2022-12-15T06:09:10.782Z,-5.74
2022-12-15T06:12:12.337Z,-5.79
2022-12-15T06:15:14.019Z,-5.84
2022-12-15T06:18:15.556Z,-5.89
2022-12-15T06:21:20.083Z,-5.90
2022-12-15T06:24:21.676Z,-5.96
2022-12-15T06:27:23.223Z,-5.99
2022-12-15T06:30:24.732Z,-6.04
2022-12-15T06:33:26.386Z,-6.07
2022-12-15T06:36:28.751Z,-6.08
2022-12-15T06:39:30.454Z,-6.11
2022-12-15T06:42:31.993Z,-6.14
2022-12-15T06:45:34.386Z,-6.14
2022-12-15T06:48:36.553Z,-6.12
2022-12-15T06:51:38.178Z,-6.14
2022-12-15T06:54:39.680Z,-6.16
2022-12-15T06:57:41.263Z,-6.16
2022-12-15T07:00:44.796Z,-6.17
2022-12-15T07:03:46.833Z,-6.18
2022-12-15T07:06:49.211Z,-6.17
2022-12-15T07:09:50.774Z,-6.17
2022-12-15T07:12:52.343Z,-6.21
2022-12-15T07:15:53.923Z,-6.21
2022-12-15T07:18:55.509Z,-6.12
2022-12-15T07:21:57.779Z,-6.09
2022-12-15T07:24:59.696Z,-6.07
2022-12-15T07:28:01.484Z,-6.07
2022-12-15T07:31:09.161Z,-6.03
2022-12-15T07:34:10.717Z,-6.01
2022-12-15T07:37:12.453Z,-5.97
2022-12-15T07:40:14.010Z,-5.94
2022-12-15T07:43:16.228Z,-5.91
2022-12-15T07:46:18.563Z,-5.87
2022-12-15T07:49:20.638Z,-5.80
2022-12-15T07:52:22.209Z,-5.76
2022-12-15T07:55:43.442Z,-5.70
2022-12-15T07:58:45.290Z,-5.62
2022-12-15T08:01:47.091Z,-5.53
2022-12-15T08:04:57.987Z,-5.46
2022-12-15T08:07:59.519Z,-5.39
2022-12-15T08:11:13.509Z,-5.32
2022-12-15T08:14:17.868Z,-5.27
2022-12-15T08:17:20.499Z,-5.24
2022-12-15T08:20:22.282Z,-5.21
2022-12-15T08:23:23.787Z,-5.19
2022-12-15T08:26:30.315Z,-5.17
2022-12-15T08:29:50.768Z,-5.15
2022-12-15T08:32:53.704Z,-5.10
2022-12-15T08:35:59.157Z,-5.04
2022-12-15T08:39:01.540Z,-5.00
2022-12-15T08:42:03.163Z,-4.96
2022-12-15T08:45:05.460Z,-4.91
2022-12-15T08:48:07.079Z,-4.86
2022-12-15T08:51:09.927Z,-4.82
2022-12-15T08:54:11.547Z,-4.76
2022-12-15T08:57:13.177Z,-4.71
2022-12-15T09:00:16.096Z,-4.66
2022-12-15T09:03:17.611Z,-4.60
2022-12-15T09:06:37.401Z,-4.53
2022-12-15T09:09:39.019Z,-4.47
2022-12-15T09:12:40.573Z,-4.41
2022-12-15T09:16:08.390Z,-4.37
2022-12-15T09:19:05.123Z,-4.31
2022-12-15T09:22:07.946Z,-4.26
2022-12-15T09:25:09.813Z,-4.19
2022-12-15T09:28:11.371Z,-4.03
2022-12-15T09:31:17.450Z,-3.34
2022-12-15T09:34:19.091Z,-3.10
2022-12-15T09:37:21.048Z,-3.06
2022-12-15T09:40:23.151Z,-3.06
2022-12-15T09:43:37.048Z,-3.08
2022-12-15T09:47:08.659Z,-3.11
2022-12-15T09:50:12.819Z,-3.16
2022-12-15T09:53:45.659Z,-3.16
2022-12-15T09:56:53.190Z,-3.17
2022-12-15T10:00:05.195Z,-3.12
2022-12-15T10:03:27.808Z,-3.06
2022-12-15T10:06:39.610Z,-3.03
2022-12-15T10:09:41.180Z,-2.99
2022-12-15T10:12:55.338Z,-2.97
2022-12-15T10:16:16.728Z,-2.95
2022-12-15T10:19:49.878Z,-2.93
2022-12-15T10:22:52.368Z,-2.91
2022-12-15T10:26:17.344Z,-2.90
2022-12-15T10:29:24.320Z,-2.89
2022-12-15T10:32:42.724Z,-2.88
2022-12-15T10:35:46.204Z,-2.88
2022-12-15T10:38:50.574Z,-2.87
2022-12-15T10:42:13.350Z,-2.86
2022-12-15T10:45:33.588Z,-2.81
2022-12-15T10:48:36.725Z,-2.76
2022-12-15T10:51:50.696Z,-2.71
2022-12-15T10:54:54.587Z,-2.65
2022-12-15T10:58:01.471Z,-2.58
2022-12-15T11:01:14.963Z,-2.52
2022-12-15T11:04:26.505Z,-2.48
2022-12-15T11:07:48.327Z,-2.43
2022-12-15T11:11:19.699Z,-2.40
2022-12-15T11:14:29.382Z,-2.35
2022-12-15T11:17:41.883Z,-2.31
2022-12-15T11:20:53.533Z,-2.24
2022-12-15T11:24:21.570Z,-2.20
2022-12-15T11:27:34.183Z,-2.18
2022-12-15T11:30:47.377Z,-2.15
2022-12-15T11:33:53.740Z,-2.12
2022-12-15T11:37:36.376Z,-2.08
2022-12-15T11:40:40.324Z,-2.05
2022-12-15T11:44:06.668Z,-2.03
2022-12-15T11:47:20.559Z,-2.02
2022-12-15T11:50:55.850Z,-2.00
2022-12-15T11:54:18.540Z,-1.99
2022-12-15T11:57:51.096Z,-1.97
2022-12-15T12:01:10.574Z,-1.93
2022-12-15T12:04:17.772Z,-1.87
2022-12-15T12:07:30.823Z,-1.83
2022-12-15T12:10:38.136Z,-1.77
2022-12-15T12:13:59.904Z,-1.72
2022-12-15T12:17:06.591Z,-1.65
2022-12-15T12:20:21.926Z,-1.60
2022-12-15T12:23:42.705Z,-1.55
2022-12-15T12:26:48.783Z,-1.50
2022-12-15T12:30:00.483Z,-1.47
2022-12-15T12:33:45.420Z,-1.44
2022-12-15T12:36:51.612Z,-1.42
2022-12-15T12:39:56.896Z,-1.39
2022-12-15T12:42:59.075Z,-1.36
2022-12-15T12:46:11.304Z,-1.32
2022-12-15T12:49:26.258Z,-1.29
2022-12-15T12:52:32.746Z,-1.27
2022-12-15T12:55:42.331Z,-1.26
2022-12-15T12:58:45.444Z,-1.24
2022-12-15T13:01:50.211Z,-1.25
2022-12-15T13:05:22.509Z,-1.22
2022-12-15T13:08:45.587Z,-1.21
2022-12-15T13:11:59.030Z,-1.19
2022-12-15T13:15:24.800Z,-1.17
2022-12-15T13:18:28.218Z,-1.17
2022-12-15T13:21:41.883Z,-1.13
2022-12-15T13:24:50.366Z,-1.12
2022-12-15T13:27:57.859Z,-1.09
2022-12-15T13:31:18.175Z,-1.05
2022-12-15T13:34:23.238Z,-1.03
2022-12-15T13:38:03.727Z,-1.00
2022-12-15T13:41:24.531Z,-1.00
2022-12-15T13:44:40.504Z,-0.99
2022-12-15T13:47:53.603Z,-0.98
2022-12-15T13:51:06.353Z,-0.96
2022-12-15T13:54:21.499Z,-0.95
2022-12-15T13:57:25.140Z,-0.95
2022-12-15T14:00:26.716Z,-0.93
2022-12-15T14:03:28.475Z,-0.92
2022-12-15T14:06:36.096Z,-0.93
2022-12-15T14:09:42.063Z,-0.92
2022-12-15T14:12:45.282Z,-0.92
2022-12-15T14:15:52.715Z,-0.93
2022-12-15T14:19:20.809Z,-0.93
2022-12-15T14:22:29.781Z,-0.93
2022-12-15T14:25:32.001Z,-0.95
2022-12-15T14:28:39.221Z,-0.95
2022-12-15T14:31:40.996Z,-0.98
2022-12-15T14:34:44.691Z,-1.00
2022-12-15T14:37:55.735Z,-1.03
2022-12-15T14:41:00.999Z,-1.04
2022-12-15T14:44:36.491Z,-1.07
2022-12-15T14:47:33.874Z,-1.09
2022-12-15T14:50:36.400Z,-1.11
2022-12-15T14:53:41.016Z,-1.14
2022-12-15T14:56:42.541Z,-1.18
2022-12-15T14:59:45.915Z,-1.20
2022-12-15T15:02:47.800Z,-1.23
2022-12-15T15:06:03.491Z,-1.26
2022-12-15T15:09:40.819Z,-1.25
2022-12-15T15:12:46.134Z,-1.20
2022-12-15T15:15:56.416Z,-1.08
2022-12-15T15:19:01.766Z,-1.06
2022-12-15T15:22:03.569Z,-1.06
2022-12-15T15:25:27.334Z,-1.11
2022-12-15T15:28:37.198Z,-1.13
2022-12-15T15:31:41.937Z,-1.11
2022-12-15T15:34:45.078Z,-1.13
2022-12-15T15:37:47.091Z,-1.13
2022-12-15T15:40:54.765Z,-1.14
2022-12-15T15:44:01.411Z,-1.13
2022-12-15T15:47:03.759Z,-1.12
2022-12-15T15:50:06.289Z,-1.05
2022-12-15T15:53:15.682Z,-1.02
2022-12-15T15:56:17.975Z,-1.04
2022-12-15T15:59:21.193Z,-1.07
2022-12-15T16:02:22.931Z,-1.10
2022-12-15T16:05:25.070Z,-1.11
2022-12-15T16:08:31.387Z,-1.10
2022-12-15T16:11:33.851Z,-1.10
2022-12-15T16:14:35.379Z,-1.13
2022-12-15T16:17:36.929Z,-1.16
2022-12-15T16:20:39.779Z,-1.16
2022-12-15T16:23:44.641Z,-1.16
2022-12-15T16:26:50.550Z,-1.17
2022-12-15T16:29:52.065Z,-1.20
2022-12-15T16:32:54.747Z,-1.24
2022-12-15T16:35:57.515Z,-1.28
2022-12-15T16:38:59.076Z,-1.29
2022-12-15T16:42:01.126Z,-1.30
2022-12-15T16:45:15.173Z,-1.02
2022-12-15T16:48:17.332Z,-0.70
2022-12-15T16:51:36.350Z,-0.65
2022-12-15T16:54:48.276Z,-0.66
2022-12-15T16:57:50.675Z,-0.70
2022-12-15T17:00:53.861Z,-0.74
2022-12-15T17:03:55.410Z,-0.79
2022-12-15T17:06:56.962Z,-0.82
2022-12-15T17:09:59.114Z,-0.87
2022-12-15T17:13:35.639Z,-0.93
2022-12-15T17:16:39.516Z,-1.00
2022-12-15T17:19:52.569Z,-1.03
2022-12-15T17:23:11.620Z,-1.08
2022-12-15T17:26:29.669Z,-1.12
2022-12-15T17:29:33.066Z,-1.16
2022-12-15T17:32:34.616Z,-1.19
2022-12-15T17:35:36.198Z,-1.23
2022-12-15T17:38:37.805Z,-1.27
2022-12-15T17:45:00.960Z,-1.34
2022-12-15T17:48:02.541Z,-1.40
2022-12-15T17:51:14.272Z,-1.47
2022-12-15T17:54:18.710Z,-1.49
2022-12-15T17:57:20.670Z,-1.53
2022-12-15T18:00:28.025Z,-1.58
2022-12-15T18:03:30.269Z,-1.63
2022-12-15T18:06:32.795Z,-1.64
2022-12-15T18:09:34.483Z,-1.67
2022-12-15T18:12:36.232Z,-1.69
2022-12-15T18:15:37.788Z,-1.70
2022-12-15T18:18:39.479Z,-1.75
2022-12-15T18:21:41.512Z,-1.77
2022-12-15T18:24:43.400Z,-1.77
2022-12-15T18:27:45.092Z,-1.80
2022-12-15T18:30:48.604Z,-1.84
2022-12-15T18:33:50.148Z,-1.85
2022-12-15T18:36:51.907Z,-1.88
2022-12-15T18:39:53.497Z,-1.92
2022-12-15T18:42:55.667Z,-1.94
2022-12-15T18:45:57.678Z,-1.95
2022-12-15T18:49:00.342Z,-1.96
2022-12-15T18:52:01.899Z,-1.96
2022-12-15T18:55:03.747Z,-2.00
2022-12-15T18:58:05.474Z,-2.03
2022-12-15T19:01:08.159Z,-2.01
2022-12-15T19:04:09.779Z,-2.00
2022-12-15T19:07:11.474Z,-1.99
2022-12-15T19:10:14.630Z,-2.00
2022-12-15T19:13:18.470Z,-1.99
2022-12-15T19:16:22.230Z,-2.01
2022-12-15T19:19:42.325Z,-2.02
2022-12-15T19:22:45.274Z,-2.01
2022-12-15T19:25:48.044Z,-1.99
2022-12-15T19:28:49.561Z,-1.96
2022-12-15T19:31:52.079Z,-1.96
2022-12-15T19:34:53.717Z,-1.91
2022-12-15T19:37:57.864Z,-1.86
2022-12-15T19:41:00.095Z,-1.82
2022-12-15T19:44:01.887Z,-1.79
2022-12-15T19:47:09.971Z,-1.77
2022-12-15T19:50:20.199Z,-1.76
2022-12-15T19:53:25.846Z,-1.75
2022-12-15T19:56:29.184Z,-1.73
2022-12-15T19:59:30.896Z,-1.72
2022-12-15T20:02:32.832Z,-1.69
2022-12-15T20:05:34.521Z,-1.70
2022-12-15T20:08:38.750Z,-1.71
2022-12-15T20:11:40.305Z,-1.73
2022-12-15T20:14:42.187Z,-1.75
2022-12-15T20:17:44.989Z,-1.77
2022-12-15T20:20:48.636Z,-1.77
2022-12-15T20:24:00.522Z,-1.76
2022-12-15T20:27:04.927Z,-1.75
2022-12-15T20:30:17.626Z,-1.75
2022-12-15T20:33:19.598Z,-1.75
2022-12-15T20:36:25.344Z,-1.76
2022-12-15T20:39:29.505Z,-1.76
2022-12-15T20:42:31.075Z,-1.74
2022-12-15T20:45:32.738Z,-1.74
2022-12-15T20:48:36.760Z,-1.76
2022-12-15T20:51:38.413Z,-1.75
2022-12-15T20:54:39.935Z,-1.73
2022-12-15T20:57:41.617Z,-1.72
2022-12-15T21:00:44.683Z,-1.72
2022-12-15T21:03:47.892Z,-1.74
2022-12-15T21:06:54.481Z,-1.75
2022-12-15T21:09:56.670Z,-1.65
2022-12-15T21:12:58.215Z,-1.69
2022-12-15T21:15:59.754Z,-1.71
2022-12-15T21:19:20.517Z,-1.73
2022-12-15T21:22:28.375Z,-1.74
2022-12-15T21:25:29.940Z,-1.71
2022-12-15T21:28:31.865Z,-1.68
2022-12-15T21:31:33.668Z,-1.65
2022-12-15T21:34:35.859Z,-1.64
2022-12-15T21:37:37.671Z,-1.64
2022-12-15T21:40:39.567Z,-1.68
2022-12-15T21:43:41.408Z,-1.70
2022-12-15T21:46:42.990Z,-1.72
2022-12-15T21:49:44.555Z,-1.69
2022-12-15T21:52:47.515Z,-1.66
2022-12-15T21:55:49.116Z,-1.63
2022-12-15T21:58:52.915Z,-1.63
2022-12-15T22:01:57.223Z,-1.64
2022-12-15T22:04:58.879Z,-1.61
2022-12-15T22:08:12.605Z,-1.61
2022-12-15T22:11:23.953Z,-1.62
2022-12-15T22:14:29.465Z,-1.64
2022-12-15T22:17:32.323Z,-1.64
2022-12-15T22:20:33.884Z,-1.65
2022-12-15T22:23:35.488Z,-1.49
2022-12-15T22:26:38.663Z,-1.38
2022-12-15T22:29:40.199Z,-1.26
2022-12-15T22:32:42.295Z,-1.16
2022-12-15T22:35:43.824Z,-1.19
2022-12-15T22:38:46.994Z,-1.29
2022-12-15T22:41:50.758Z,-1.39
2022-12-15T22:44:52.791Z,-1.44
2022-12-15T22:47:56.733Z,-1.53
2022-12-15T22:50:58.292Z,-1.61
2022-12-15T22:54:00.995Z,-1.77
2022-12-15T22:57:10.715Z,-1.77
2022-12-15T23:00:13.659Z,-1.77
2022-12-15T23:03:15.220Z,-1.80
2022-12-15T23:06:16.755Z,-1.82
2022-12-15T23:09:18.723Z,-1.86
2022-12-15T23:12:20.496Z,-1.89
2022-12-15T23:15:47.774Z,-1.90
2022-12-15T23:18:51.996Z,-1.90
2022-12-15T23:21:53.535Z,-1.92
2022-12-15T23:24:55.774Z,-1.94
2022-12-15T23:27:57.522Z,-1.97
2022-12-15T23:30:59.702Z,-2.03
2022-12-15T23:34:01.277Z,-2.08
2022-12-15T23:37:02.863Z,-2.21
2022-12-15T23:40:04.937Z,-2.30
2022-12-15T23:43:06.432Z,-2.35
2022-12-15T23:46:08.397Z,-2.38
2022-12-15T23:49:10.185Z,-2.42
2022-12-15T23:52:11.778Z,-2.46
2022-12-15T23:55:13.348Z,-2.51
2022-12-15T23:58:14.895Z,-2.56
